Time;durP1;ratioP1;P1;durP2;ratioP2;P2;SDS_P1;SDS_P2;PMS_P1;PMS_P2;Temp;Humidity;BMP_temperature;BMP_pressure;BME280_temperature;BME280_humidity;BME280_pressure;Samples;Min_cycle;Max_cycle;Signal;HPM_P1;HPM_P2
2023/10/15 00:01:00;;;;;;;5.23;3.17;;;8.90;99.90;;;;;;4992195;28;20553;-76
2023/10/15 00:03:33;;;;;;;4.60;2.90;;;9.00;99.90;;;;;;4992194;28;20217;-76
2023/10/15 00:06:00;;;;;;;3.37;2.80;;;9.00;99.90;;;;;;4999723;28;20591;-76
2023/10/15 00:08:27;;;;;;;5.43;3.07;;;9.00;99.90;;;;;;4990867;28;20318;-76
2023/10/15 00:10:53;;;;;;;8.90;3.33;;;9.10;99.90;;;;;;4990914;28;20240;-76
2023/10/15 00:13:22;;;;;;;5.23;3.20;;;9.00;99.90;;;;;;4990900;28;20219;-76
2023/10/15 00:15:49;;;;;;;8.23;3.37;;;9.10;99.90;;;;;;4992038;28;20193;-76
2023/10/15 00:18:15;;;;;;;5.67;2.73;;;9.10;99.90;;;;;;4982996;28;20640;-75
2023/10/15 00:20:42;;;;;;;3.77;2.83;;;9.10;99.90;;;;;;4990701;28;20256;-76
2023/10/15 00:23:10;;;;;;;5.57;4.87;;;9.10;99.90;;;;;;4990683;28;20385;-76
2023/10/15 00:25:37;;;;;;;6.53;5.40;;;9.20;99.90;;;;;;4992134;28;20734;-76
2023/10/15 00:28:09;;;;;;;6.33;5.47;;;9.20;99.90;;;;;;4991744;28;20251;-76
2023/10/15 00:30:37;;;;;;;6.33;5.73;;;9.20;99.90;;;;;;4990724;28;20197;-76
2023/10/15 00:33:06;;;;;;;6.40;5.20;;;9.20;99.90;;;;;;4990547;28;20224;-76
2023/10/15 00:35:34;;;;;;;6.73;4.40;;;9.20;99.90;;;;;;4990570;28;20748;-77
2023/10/15 00:38:07;;;;;;;6.60;4.67;;;9.30;99.90;;;;;;4990831;28;20626;-76
2023/10/15 00:40:38;;;;;;;4.10;3.80;;;9.30;99.90;;;;;;5012241;23;20217;-76
2023/10/15 00:43:05;;;;;;;4.43;4.03;;;9.20;99.90;;;;;;4976473;28;20210;-75
2023/10/15 00:45:39;;;;;;;5.00;4.50;;;9.30;99.90;;;;;;4984199;28;20205;-75
2023/10/15 00:48:11;;;;;;;6.90;6.30;;;9.30;99.90;;;;;;4979794;28;20205;-76
2023/10/15 00:50:41;;;;;;;7.00;6.23;;;9.20;99.90;;;;;;4978034;28;20200;-76
2023/10/15 00:53:21;;;;;;;6.83;6.23;;;9.20;99.90;;;;;;4981101;28;20220;-75
2023/10/15 00:55:50;;;;;;;8.63;6.30;;;9.20;99.90;;;;;;4982458;28;20212;-76
2023/10/15 00:58:21;;;;;;;7.33;6.30;;;9.20;99.90;;;;;;4981016;28;20202;-76
2023/10/15 01:00:53;;;;;;;7.67;6.93;;;9.20;99.90;;;;;;4982667;28;20300;-75
2023/10/15 01:03:30;;;;;;;7.20;6.60;;;9.20;99.90;;;;;;4982402;28;20606;-75
2023/10/15 01:06:04;;;;;;;8.77;7.10;;;9.20;99.90;;;;;;4982935;28;20228;-75
2023/10/15 01:08:35;;;;;;;8.07;7.40;;;9.20;99.90;;;;;;4975802;28;20232;-77
2023/10/15 01:11:15;;;;;;;7.20;6.70;;;9.20;99.90;;;;;;4972641;28;20229;-75
2023/10/15 01:13:42;;;;;;;8.47;6.70;;;9.30;99.90;;;;;;4977440;28;20634;-76
2023/10/15 01:16:09;;;;;;;6.93;6.27;;;9.20;99.90;;;;;;4970195;28;20193;-75
2023/10/15 01:18:38;;;;;;;7.13;6.43;;;9.20;99.90;;;;;;4979319;28;20206;-75
2023/10/15 01:21:09;;;;;;;6.90;6.30;;;9.20;99.90;;;;;;4983775;28;20705;-75
2023/10/15 01:23:45;;;;;;;7.40;6.63;;;9.20;99.90;;;;;;4983691;28;20260;-75
2023/10/15 01:26:23;;;;;;;7.40;4.00;;;9.30;99.90;;;;;;4982686;28;20299;-76
2023/10/15 01:28:51;;;;;;;6.00;3.20;;;9.20;99.90;;;;;;4984314;28;20202;-76
2023/10/15 01:31:18;;;;;;;3.03;2.60;;;9.30;99.90;;;;;;4999499;28;20218;-75
2023/10/15 01:33:47;;;;;;;4.97;2.77;;;9.30;99.90;;;;;;4984215;28;20253;-75
2023/10/15 01:36:19;;;;;;;5.30;3.00;;;9.30;99.90;;;;;;4981891;28;20206;-75
2023/10/15 01:38:46;;;;;;;7.07;3.27;;;9.30;99.90;;;;;;4980363;28;20309;-76
2023/10/15 01:41:16;;;;;;;5.40;3.10;;;9.30;99.90;;;;;;4983020;28;20226;-75
2023/10/15 01:43:46;;;;;;;4.33;2.93;;;9.40;99.90;;;;;;4983577;28;20672;-75
2023/10/15 01:46:24;;;;;;;7.57;6.97;;;9.40;99.90;;;;;;4982934;28;20707;-75
2023/10/15 01:48:51;;;;;;;6.53;5.83;;;9.40;99.90;;;;;;4982836;28;20265;-75
2023/10/15 01:51:18;;;;;;;5.20;4.80;;;9.40;99.90;;;;;;4980798;28;20225;-75
2023/10/15 01:53:45;;;;;;;5.23;4.73;;;9.30;99.90;;;;;;4983321;28;20218;-75
2023/10/15 01:56:17;;;;;;;6.07;4.70;;;9.30;99.90;;;;;;4981172;28;20228;-75
2023/10/15 01:58:45;;;;;;;5.67;4.30;;;9.30;99.90;;;;;;4979785;28;20661;-75
2023/10/15 02:01:20;;;;;;;4.73;4.20;;;9.30;99.90;;;;;;4980078;28;20701;-75
2023/10/15 02:03:48;;;;;;;5.47;4.63;;;9.30;99.90;;;;;;4980106;28;20269;-75
2023/10/15 02:06:16;;;;;;;5.30;4.80;;;9.30;99.90;;;;;;4979228;28;20202;-76
2023/10/15 02:08:45;;;;;;;7.23;5.00;;;9.30;99.90;;;;;;4980736;28;20209;-75
2023/10/15 02:11:17;;;;;;;7.27;4.97;;;9.30;99.90;;;;;;4978977;28;20276;-75
2023/10/15 02:13:46;;;;;;;4.50;3.43;;;9.30;99.90;;;;;;4980047;28;20202;-76
2023/10/15 02:16:17;;;;;;;5.27;3.30;;;9.30;99.90;;;;;;4980817;28;20202;-75
2023/10/15 02:18:45;;;;;;;3.80;3.37;;;9.30;99.90;;;;;;4981011;28;20206;-75
2023/10/15 02:21:16;;;;;;;7.30;3.17;;;9.30;99.90;;;;;;4981173;28;20321;-75
2023/10/15 02:23:49;;;;;;;5.57;3.57;;;9.30;99.90;;;;;;4982197;28;20234;-75
2023/10/15 02:26:18;;;;;;;5.80;2.80;;;9.40;99.90;;;;;;4982893;28;20233;-76
2023/10/15 02:28:53;;;;;;;4.37;3.10;;;9.30;99.90;;;;;;4981806;28;20228;-76
2023/10/15 02:31:22;;;;;;;3.00;2.70;;;9.30;99.90;;;;;;4980042;28;20225;-75
2023/10/15 02:33:51;;;;;;;6.77;2.87;;;9.30;99.90;;;;;;4982249;28;20202;-75
2023/10/15 02:36:23;;;;;;;9.50;3.30;;;9.30;99.90;;;;;;4980695;28;20240;-77
2023/10/15 02:38:53;;;;;;;4.77;3.10;;;9.30;99.90;;;;;;4981998;28;20727;-76
2023/10/15 02:41:21;;;;;;;5.60;3.17;;;9.30;99.90;;;;;;4981938;28;20682;-77
2023/10/15 02:43:53;;;;;;;3.53;2.80;;;9.30;99.90;;;;;;4981445;28;20198;-75
2023/10/15 02:46:23;;;;;;;8.47;3.17;;;9.30;99.90;;;;;;4982921;28;20206;-76
2023/10/15 02:48:53;;;;;;;5.23;3.10;;;9.40;99.90;;;;;;4982600;28;20202;-76
2023/10/15 02:51:23;;;;;;;2.97;2.70;;;9.40;99.90;;;;;;4979661;28;20240;-77
2023/10/15 02:53:54;;;;;;;4.70;3.00;;;9.40;99.90;;;;;;4982119;28;20202;-76
2023/10/15 02:56:23;;;;;;;7.73;3.30;;;9.40;99.90;;;;;;4981702;28;20213;-75
2023/10/15 02:58:54;;;;;;;4.70;3.00;;;9.40;99.90;;;;;;4980995;28;20229;-78
2023/10/15 03:01:22;;;;;;;5.00;3.00;;;9.40;99.90;;;;;;4996099;28;20579;-76
2023/10/15 03:03:50;;;;;;;6.97;3.03;;;9.40;99.90;;;;;;4979774;28;20225;-75
2023/10/15 03:06:24;;;;;;;3.40;2.67;;;9.40;99.90;;;;;;4981322;28;20210;-75
2023/10/15 03:08:52;;;;;;;4.97;2.53;;;9.40;99.90;;;;;;4971359;28;20961;-77
2023/10/15 03:11:21;;;;;;;4.43;2.80;;;9.40;99.90;;;;;;4970022;28;20225;-77
2023/10/15 03:13:53;;;;;;;5.60;2.90;;;9.40;99.90;;;;;;4976728;28;20210;-77
2023/10/15 03:16:21;;;;;;;4.77;2.40;;;9.40;99.90;;;;;;4988925;28;20216;-77
2023/10/15 03:18:50;;;;;;;4.77;2.70;;;9.40;99.90;;;;;;4985636;28;20261;-77
2023/10/15 03:21:24;;;;;;;6.40;2.80;;;9.40;99.90;;;;;;4984051;28;20305;-77
2023/10/15 03:23:56;;;;;;;5.53;2.80;;;9.40;99.90;;;;;;4981200;28;20632;-76
2023/10/15 03:26:24;;;;;;;2.97;2.60;;;9.50;99.90;;;;;;4976974;28;20201;-78
2023/10/15 03:28:52;;;;;;;5.63;2.90;;;9.50;99.90;;;;;;4967440;28;20201;-77
2023/10/15 03:31:23;;;;;;;4.83;2.30;;;9.50;99.90;;;;;;4979246;28;20649;-83
2023/10/15 03:36:50;;;;;;;9.17;3.90;;;9.50;99.90;;;;;;4922843;28;20291;-73
2023/10/15 03:39:24;;;;;;;7.40;3.13;;;9.50;99.90;;;;;;4975989;28;20719;-73
2023/10/15 03:42:09;;;;;;;6.10;3.03;;;9.50;99.90;;;;;;4974575;28;20252;-73
2023/10/15 03:44:38;;;;;;;5.43;3.00;;;9.50;99.90;;;;;;4977644;28;20241;-73
2023/10/15 03:47:05;;;;;;;2.87;2.60;;;9.50;99.90;;;;;;4976799;28;20225;-73
2023/10/15 03:49:32;;;;;;;4.50;2.80;;;9.50;99.90;;;;;;4976698;28;20209;-73
2023/10/15 03:51:59;;;;;;;5.20;2.90;;;9.60;99.90;;;;;;4977510;28;20293;-74
2023/10/15 03:54:26;;;;;;;4.80;2.80;;;9.50;99.90;;;;;;4992743;28;20213;-74
2023/10/15 03:56:53;;;;;;;4.43;2.80;;;9.60;99.90;;;;;;4976231;28;20202;-73
2023/10/15 03:59:20;;;;;;;6.30;2.97;;;9.60;99.90;;;;;;4975878;28;20194;-73
2023/10/15 04:01:49;;;;;;;4.67;2.67;;;9.50;99.90;;;;;;4977371;28;20280;-73
2023/10/15 04:04:18;;;;;;;2.93;2.10;;;9.50;99.90;;;;;;4976259;28;20194;-74
2023/10/15 04:06:50;;;;;;;4.03;2.60;;;9.50;99.90;;;;;;4970891;28;20196;-74
2023/10/15 04:09:22;;;;;;;4.03;2.50;;;9.50;99.90;;;;;;4975806;28;20273;-73
2023/10/15 04:11:50;;;;;;;3.23;2.53;;;9.50;99.90;;;;;;4976974;28;20256;-73
2023/10/15 04:14:26;;;;;;;3.83;2.50;;;9.40;99.90;;;;;;4975831;28;20249;-74
2023/10/15 04:16:57;;;;;;;3.83;2.70;;;9.50;99.90;;;;;;4977510;28;20225;-74
2023/10/15 04:19:27;;;;;;;4.33;2.90;;;9.50;99.90;;;;;;4974609;28;20474;-73
2023/10/15 04:21:59;;;;;;;5.13;3.03;;;9.50;99.90;;;;;;4974397;28;20226;-73
2023/10/15 04:24:36;;;;;;;4.50;2.60;;;9.50;99.90;;;;;;4976680;28;20276;-73
2023/10/15 04:27:07;;;;;;;4.70;2.97;;;9.50;99.90;;;;;;4973670;28;20288;-74
2023/10/15 04:29:43;;;;;;;4.93;3.00;;;9.50;99.90;;;;;;4974453;28;20202;-74
2023/10/15 04:32:17;;;;;;;4.03;2.70;;;9.50;99.90;;;;;;4973456;28;20593;-74
2023/10/15 04:34:47;;;;;;;4.77;2.77;;;9.50;99.90;;;;;;4972169;28;20205;-74
2023/10/15 04:37:16;;;;;;;8.57;2.97;;;9.50;99.90;;;;;;4975747;28;20198;-73
2023/10/15 04:39:52;;;;;;;4.40;2.70;;;9.40;99.90;;;;;;4976465;28;20710;-74
2023/10/15 04:42:28;;;;;;;3.93;2.60;;;9.40;99.90;;;;;;4976219;28;20287;-74
2023/10/15 04:44:55;;;;;;;2.90;2.50;;;9.50;99.90;;;;;;4971171;28;20206;-74
2023/10/15 04:47:28;;;;;;;3.17;2.50;;;9.50;99.90;;;;;;4972562;28;20674;-74
2023/10/15 04:49:57;;;;;;;3.67;2.50;;;9.50;99.90;;;;;;4974406;28;20205;-74
2023/10/15 04:52:24;;;;;;;5.23;2.60;;;9.50;99.90;;;;;;4991220;28;20217;-73
2023/10/15 04:54:55;;;;;;;4.03;2.60;;;9.50;99.90;;;;;;4976483;28;20208;-73
2023/10/15 04:57:23;;;;;;;5.13;4.13;;;9.50;99.90;;;;;;4975686;28;20198;-74
2023/10/15 04:59:50;;;;;;;5.70;4.00;;;9.50;99.90;;;;;;4974604;28;20615;-74
2023/10/15 05:02:18;;;;;;;5.07;4.50;;;9.50;99.90;;;;;;4976263;28;20209;-73
2023/10/15 05:04:46;;;;;;;5.63;4.70;;;9.50;99.90;;;;;;4976146;28;20709;-73
2023/10/15 05:07:15;;;;;;;5.97;5.47;;;9.40;99.90;;;;;;4975030;28;20210;-73
2023/10/15 05:09:44;;;;;;;6.93;6.20;;;9.40;99.90;;;;;;4975559;28;20600;-73
2023/10/15 05:12:12;;;;;;;7.40;5.50;;;9.40;99.90;;;;;;4991375;28;20241;-74
2023/10/15 05:14:39;;;;;;;6.73;5.73;;;9.40;99.90;;;;;;4976570;28;20217;-74
2023/10/15 05:17:06;;;;;;;7.10;6.13;;;9.40;99.90;;;;;;4975508;28;20575;-74
2023/10/15 05:19:33;;;;;;;7.10;3.10;;;9.40;99.90;;;;;;4965817;28;20568;-78
2023/10/15 05:22:01;;;;;;;3.03;2.77;;;9.30;99.90;;;;;;4985979;28;20214;-76
2023/10/15 05:24:27;;;;;;;3.83;2.93;;;9.30;99.90;;;;;;4982804;28;20202;-76
2023/10/15 05:26:54;;;;;;;6.40;3.00;;;9.30;99.90;;;;;;4980677;28;20237;-77
2023/10/15 05:29:21;;;;;;;7.50;4.40;;;9.20;99.90;;;;;;4981405;28;20198;-77
2023/10/15 05:31:48;;;;;;;6.73;5.00;;;9.20;99.90;;;;;;4989804;28;20228;-77
2023/10/15 05:34:15;;;;;;;9.37;5.70;;;9.10;99.90;;;;;;4988057;28;20222;-77
2023/10/15 05:36:42;;;;;;;5.87;3.50;;;9.10;99.90;;;;;;4979681;28;20371;-77
2023/10/15 05:39:10;;;;;;;4.93;3.30;;;9.10;99.90;;;;;;4985050;28;20210;-77
2023/10/15 05:41:38;;;;;;;3.90;3.30;;;9.10;99.90;;;;;;4987078;28;20265;-76
2023/10/15 05:44:05;;;;;;;4.00;3.60;;;9.10;99.90;;;;;;4978775;28;20695;-78
2023/10/15 05:46:32;;;;;;;8.87;8.23;;;9.10;99.90;;;;;;4978462;28;20210;-79
2023/10/15 05:49:00;;;;;;;5.37;3.70;;;9.20;99.90;;;;;;4985927;28;20197;-79
2023/10/15 05:51:27;;;;;;;4.30;3.63;;;9.10;99.90;;;;;;4977540;28;20225;-73
2023/10/15 05:53:54;;;;;;;5.20;3.20;;;9.20;99.90;;;;;;4965460;28;20281;-74
2023/10/15 05:56:22;;;;;;;6.27;3.33;;;9.10;99.90;;;;;;4977985;28;20213;-73
2023/10/15 05:58:51;;;;;;;5.40;3.90;;;9.10;99.90;;;;;;4974095;28;20229;-73
2023/10/15 06:01:17;;;;;;;4.83;3.63;;;9.20;99.90;;;;;;4976006;28;20221;-74
2023/10/15 06:03:46;;;;;;;4.30;3.13;;;9.20;99.90;;;;;;4977378;28;20218;-77
2023/10/15 06:06:13;;;;;;;4.37;2.90;;;9.10;99.90;;;;;;4968314;28;20198;-77
2023/10/15 06:08:40;;;;;;;8.43;3.50;;;9.20;99.90;;;;;;4973222;28;20221;-77
2023/10/15 06:11:07;;;;;;;4.73;3.00;;;9.20;99.90;;;;;;4983314;28;20228;-77
2023/10/15 06:13:35;;;;;;;5.20;3.27;;;9.20;99.90;;;;;;4978123;28;20245;-77
2023/10/15 06:16:04;;;;;;;4.20;3.03;;;9.20;99.90;;;;;;4982604;28;20190;-77
2023/10/15 06:18:31;;;;;;;4.27;3.20;;;9.20;99.90;;;;;;4971691;28;20210;-77
2023/10/15 06:20:58;;;;;;;4.60;3.27;;;9.20;99.90;;;;;;4982781;28;20225;-77
2023/10/15 06:23:26;;;;;;;7.30;6.80;;;9.30;99.90;;;;;;4970632;28;20200;-77
2023/10/15 06:25:53;;;;;;;4.97;3.10;;;9.30;99.90;;;;;;4984182;28;20202;-78
2023/10/15 06:28:20;;;;;;;7.77;3.60;;;9.30;99.90;;;;;;4976868;28;20678;-78
2023/10/15 06:30:48;;;;;;;3.43;2.50;;;9.30;99.90;;;;;;4998885;28;20689;-77
2023/10/15 06:33:16;;;;;;;5.67;5.10;;;9.40;99.90;;;;;;4972881;28;20732;-78
2023/10/15 06:35:43;;;;;;;5.67;2.90;;;9.40;99.90;;;;;;4988297;28;20206;-78
2023/10/15 06:38:10;;;;;;;4.70;3.03;;;9.40;99.90;;;;;;4980277;28;20212;-77
2023/10/15 06:40:38;;;;;;;8.23;7.43;;;9.40;99.90;;;;;;4973253;28;20683;-77
2023/10/15 06:43:05;;;;;;;7.90;7.37;;;9.40;99.90;;;;;;4996611;23;20289;-75
2023/10/15 06:45:33;;;;;;;8.90;8.10;;;9.40;99.90;;;;;;4972302;28;20194;-75
2023/10/15 06:48:02;;;;;;;7.90;7.40;;;9.50;99.90;;;;;;4964651;28;20202;-76
2023/10/15 06:50:30;;;;;;;8.03;7.30;;;9.50;99.90;;;;;;4963748;28;20199;-76
2023/10/15 06:53:01;;;;;;;6.57;5.93;;;9.60;99.90;;;;;;4965884;28;20228;-77
2023/10/15 06:55:31;;;;;;;4.80;4.50;;;9.60;99.90;;;;;;4965106;28;20253;-76
2023/10/15 06:57:58;;;;;;;4.53;4.13;;;9.70;99.90;;;;;;4969289;28;20233;-77
2023/10/15 07:00:25;;;;;;;3.77;2.97;;;9.80;99.90;;;;;;4968917;28;20200;-75
2023/10/15 07:02:55;;;;;;;6.60;6.00;;;10.00;99.90;;;;;;4965582;28;20223;-77
2023/10/15 07:05:26;;;;;;;2.80;2.57;;;10.00;99.90;;;;;;4966879;28;20643;-76
2023/10/15 07:07:56;;;;;;;2.70;2.50;;;10.00;99.90;;;;;;4967248;28;20229;-75
2023/10/15 07:10:23;;;;;;;3.33;2.70;;;10.10;99.90;;;;;;4968772;28;20720;-76
2023/10/15 07:12:51;;;;;;;5.27;2.67;;;10.10;99.90;;;;;;4988278;28;20624;-76
2023/10/15 07:15:20;;;;;;;4.83;2.90;;;10.10;99.90;;;;;;4972267;28;20203;-76
2023/10/15 07:17:49;;;;;;;4.03;2.63;;;10.00;99.90;;;;;;4972185;28;20217;-76
2023/10/15 07:20:18;;;;;;;4.63;2.77;;;10.00;99.90;;;;;;4972206;28;20855;-75
2023/10/15 07:22:48;;;;;;;5.27;2.90;;;10.00;99.90;;;;;;4978957;28;20229;-77
2023/10/15 07:25:16;;;;;;;3.43;2.97;;;10.00;99.90;;;;;;4973527;28;20675;-76
2023/10/15 07:27:46;;;;;;;3.20;2.80;;;10.00;99.90;;;;;;4968635;28;20194;-76
2023/10/15 07:30:14;;;;;;;5.97;5.33;;;10.00;99.90;;;;;;4973394;28;20217;-75
2023/10/15 07:32:41;;;;;;;7.03;6.43;;;10.00;99.90;;;;;;4968453;28;20219;-76
2023/10/15 07:35:11;;;;;;;5.50;5.03;;;10.10;99.90;;;;;;4965324;28;20226;-76
2023/10/15 07:37:40;;;;;;;5.90;5.50;;;10.20;99.90;;;;;;4973098;28;20289;-76
2023/10/15 07:40:16;;;;;;;7.80;3.90;;;10.20;99.90;;;;;;4971796;28;20292;-76
2023/10/15 07:42:44;;;;;;;5.97;5.33;;;10.30;99.90;;;;;;4963000;28;20231;-76
2023/10/15 07:45:11;;;;;;;5.80;5.40;;;10.30;99.90;;;;;;4969227;28;20206;-76
2023/10/15 07:47:38;;;;;;;6.03;5.50;;;10.40;99.90;;;;;;4971870;28;20205;-76
2023/10/15 07:50:07;;;;;;;6.77;5.90;;;10.40;99.90;;;;;;4964759;28;20211;-76
2023/10/15 07:52:34;;;;;;;6.50;5.90;;;10.50;99.90;;;;;;4971070;28;20263;-76
2023/10/15 07:55:01;;;;;;;5.90;5.40;;;10.50;99.90;;;;;;4972863;28;20212;-76
2023/10/15 07:57:29;;;;;;;6.50;5.90;;;10.50;99.90;;;;;;4973021;28;20265;-76
2023/10/15 07:59:58;;;;;;;6.20;5.60;;;10.60;99.90;;;;;;4965793;28;20277;-76
2023/10/15 08:02:25;;;;;;;5.43;4.33;;;10.70;99.90;;;;;;4971171;28;20716;-76
2023/10/15 08:04:54;;;;;;;6.73;6.10;;;10.70;99.90;;;;;;4972544;28;20234;-76
2023/10/15 08:07:21;;;;;;;6.33;5.73;;;10.90;99.90;;;;;;4966426;28;20220;-76
2023/10/15 08:09:48;;;;;;;6.03;5.60;;;11.00;99.90;;;;;;4960749;28;20215;-76
2023/10/15 08:12:15;;;;;;;5.93;5.43;;;11.10;99.90;;;;;;4961821;28;20253;-76
2023/10/15 08:14:43;;;;;;;6.07;5.57;;;11.10;99.90;;;;;;4958641;28;20228;-76
2023/10/15 08:17:11;;;;;;;5.37;4.90;;;11.20;99.90;;;;;;4968707;28;20216;-76
2023/10/15 08:19:38;;;;;;;9.70;5.77;;;11.20;99.90;;;;;;4968528;28;20288;-76
2023/10/15 08:22:05;;;;;;;7.30;6.70;;;11.30;99.90;;;;;;4964092;28;20278;-76
2023/10/15 08:24:32;;;;;;;7.50;6.90;;;11.40;99.90;;;;;;4965292;28;20204;-76
2023/10/15 08:26:59;;;;;;;7.40;6.60;;;11.50;99.90;;;;;;4965847;28;20260;-76
2023/10/15 08:29:26;;;;;;;7.10;6.60;;;11.50;99.90;;;;;;4957173;28;20236;-76
2023/10/15 08:31:54;;;;;;;7.20;6.60;;;11.50;99.90;;;;;;4956385;28;20218;-76
2023/10/15 08:34:23;;;;;;;7.70;7.00;;;11.70;99.90;;;;;;4958954;28;20231;-76
2023/10/15 08:36:50;;;;;;;7.00;6.50;;;11.80;99.90;;;;;;4960411;28;20222;-77
2023/10/15 08:39:16;;;;;;;6.17;5.60;;;11.90;99.90;;;;;;4956213;28;20210;-77
2023/10/15 08:41:45;;;;;;;4.53;4.13;;;11.90;99.90;;;;;;4960263;28;20230;-76
2023/10/15 08:44:18;;;;;;;4.17;3.60;;;11.90;99.90;;;;;;4958623;28;20227;-76
2023/10/15 08:46:47;;;;;;;4.37;4.00;;;11.90;99.90;;;;;;4960396;28;20312;-77
2023/10/15 08:49:16;;;;;;;4.50;4.10;;;11.90;99.90;;;;;;4962899;28;20209;-80
2023/10/15 08:51:45;;;;;;;5.27;4.87;;;11.90;99.90;;;;;;4958064;28;20292;-76
2023/10/15 08:54:14;;;;;;;5.67;5.27;;;12.00;99.90;;;;;;4965482;28;20613;-76
2023/10/15 08:56:43;;;;;;;5.63;5.33;;;12.00;99.90;;;;;;4954529;28;20198;-76
2023/10/15 08:59:10;;;;;;;6.63;5.97;;;12.20;99.90;;;;;;4960280;28;20359;-77
2023/10/15 09:01:42;;;;;;;5.90;5.50;;;12.70;99.90;;;;;;4965560;28;20217;-76
2023/10/15 09:04:10;;;;;;;3.90;2.50;;;13.40;99.90;;;;;;4966749;28;20202;-76
2023/10/15 09:06:39;;;;;;;3.70;3.13;;;14.00;99.90;;;;;;4969375;28;20197;-77
2023/10/15 09:09:06;;;;;;;6.57;6.17;;;14.60;99.90;;;;;;4974801;28;20663;-76
2023/10/15 09:11:33;;;;;;;3.20;2.60;;;15.10;99.90;;;;;;4968096;28;20707;-77
2023/10/15 09:14:02;;;;;;;4.10;3.80;;;15.60;99.90;;;;;;4973585;28;20741;-76
2023/10/15 09:16:30;;;;;;;3.17;2.87;;;15.90;99.90;;;;;;4975772;28;20295;-76
2023/10/15 09:19:03;;;;;;;4.13;2.63;;;16.20;99.90;;;;;;4961177;28;20565;-76
2023/10/15 09:21:31;;;;;;;4.77;2.77;;;16.30;99.90;;;;;;4963115;28;20667;-77
2023/10/15 09:24:01;;;;;;;4.27;2.73;;;15.90;99.90;;;;;;4975737;28;20253;-76
2023/10/15 09:26:31;;;;;;;3.33;3.03;;;15.70;99.90;;;;;;4963688;28;20206;-77
2023/10/15 09:28:58;;;;;;;6.00;3.87;;;15.80;99.90;;;;;;4958257;28;20206;-79
2023/10/15 09:31:25;;;;;;;3.30;2.30;;;15.80;99.90;;;;;;4961363;28;20301;-76
2023/10/15 09:33:52;;;;;;;3.87;2.30;;;15.20;99.90;;;;;;4963201;28;20731;-77
2023/10/15 09:36:19;;;;;;;8.50;6.60;;;14.60;99.90;;;;;;4964288;28;20199;-77
2023/10/15 09:38:47;;;;;;;4.33;3.00;;;14.00;99.90;;;;;;4962978;28;20205;-77
2023/10/15 09:41:15;;;;;;;7.03;3.83;;;13.30;99.90;;;;;;4958473;28;20217;-76
2023/10/15 09:43:44;;;;;;;5.73;5.07;;;12.50;99.90;;;;;;4963209;28;20677;-76
2023/10/15 09:46:12;;;;;;;3.73;3.30;;;11.90;99.90;;;;;;4963678;28;20237;-77
2023/10/15 09:48:40;;;;;;;6.03;5.37;;;11.50;99.90;;;;;;4958240;28;20208;-76
2023/10/15 09:51:08;;;;;;;4.17;2.63;;;11.30;99.90;;;;;;4964711;28;20198;-76
2023/10/15 09:53:35;;;;;;;3.60;2.67;;;11.20;99.90;;;;;;4974909;28;20227;-76
2023/10/15 09:56:07;;;;;;;4.67;2.90;;;11.30;99.90;;;;;;4956793;28;20206;-76
2023/10/15 09:58:35;;;;;;;5.77;3.50;;;11.40;99.90;;;;;;4960339;28;20640;-76
2023/10/15 10:01:09;;;;;;;4.07;2.40;;;11.50;99.90;;;;;;4959773;28;20216;-77
2023/10/15 10:04:15;;;;;;;3.83;2.40;;;11.40;99.90;;;;;;4970504;28;20238;-77
2023/10/15 10:07:16;;;;;;;6.57;6.07;;;11.40;99.90;;;;;;4962479;28;20259;-77
2023/10/15 10:10:26;;;;;;;3.50;2.63;;;11.30;99.90;;;;;;4963028;28;20209;-75
2023/10/15 10:13:20;;;;;;;4.50;4.10;;;11.40;99.90;;;;;;4956164;28;20224;-78
2023/10/15 10:15:54;;;;;;;4.60;3.03;;;11.50;99.90;;;;;;4962950;28;20221;-77
2023/10/15 10:18:22;;;;;;;4.83;2.77;;;11.70;99.90;;;;;;4960374;28;20630;-76
2023/10/15 10:20:49;;;;;;;3.57;2.67;;;11.80;99.90;;;;;;4960424;28;20199;-76
2023/10/15 10:23:17;;;;;;;4.30;2.70;;;11.90;99.90;;;;;;4972380;28;20758;-77
2023/10/15 10:25:46;;;;;;;3.17;2.87;;;11.90;99.90;;;;;;4965299;28;20300;-77
2023/10/15 10:28:15;;;;;;;3.53;2.73;;;11.90;99.90;;;;;;4959131;28;20287;-78
2023/10/15 10:30:53;;;;;;;3.43;3.10;;;11.90;99.90;;;;;;4967811;28;20270;-77
2023/10/15 10:33:40;;;;;;;2.43;2.23;;;11.90;99.90;;;;;;4963247;28;20226;-77
2023/10/15 10:36:14;;;;;;;4.30;2.37;;;11.90;99.90;;;;;;4966360;28;20286;-77
2023/10/15 10:38:42;;;;;;;4.20;2.70;;;11.90;99.90;;;;;;4965722;28;20208;-77
2023/10/15 10:41:13;;;;;;;4.10;3.10;;;11.80;99.90;;;;;;4964102;28;20665;-78
2023/10/15 10:43:41;;;;;;;3.23;2.70;;;11.80;99.90;;;;;;4969575;28;20203;-77
2023/10/15 10:46:20;;;;;;;2.87;2.50;;;11.80;99.90;;;;;;4966502;28;20219;-79
2023/10/15 10:49:03;;;;;;;2.60;2.40;;;11.90;99.90;;;;;;4972469;28;20210;-78
2023/10/15 10:51:32;;;;;;;3.70;3.20;;;11.80;99.90;;;;;;4961506;28;20280;-78
2023/10/15 10:54:25;;;;;;;6.00;5.43;;;11.90;99.90;;;;;;4963239;28;20206;-78
2023/10/15 10:57:06;;;;;;;5.73;5.23;;;11.90;99.90;;;;;;4969503;28;20603;-78
2023/10/15 10:59:35;;;;;;;5.63;5.23;;;11.90;99.90;;;;;;4960032;28;20692;-78
2023/10/15 11:02:05;;;;;;;6.43;4.80;;;11.90;99.90;;;;;;4959581;28;20259;-77
2023/10/15 11:04:33;;;;;;;4.23;2.60;;;11.90;99.90;;;;;;4956958;28;20207;-78
2023/10/15 11:07:00;;;;;;;3.70;2.60;;;12.10;99.90;;;;;;4964917;28;20719;-77
2023/10/15 11:09:28;;;;;;;2.40;2.20;;;12.50;99.90;;;;;;4968968;28;20198;-77
2023/10/15 11:11:56;;;;;;;4.90;4.50;;;12.70;99.90;;;;;;4961610;28;20222;-78
2023/10/15 11:14:24;;;;;;;4.07;3.00;;;12.90;99.90;;;;;;4962951;28;20600;-78
2023/10/15 11:16:53;;;;;;;4.43;3.23;;;12.90;99.90;;;;;;4962263;28;20684;-78
2023/10/15 11:19:24;;;;;;;4.00;2.73;;;12.70;99.90;;;;;;4959130;28;20198;-78
2023/10/15 11:21:52;;;;;;;4.07;2.67;;;12.50;99.90;;;;;;4962480;28;20214;-79
2023/10/15 11:24:20;;;;;;;4.37;3.50;;;12.30;99.90;;;;;;4965997;28;20677;-79
2023/10/15 11:26:47;;;;;;;5.77;3.13;;;12.10;99.90;;;;;;4963481;28;20628;-80
2023/10/15 11:29:18;;;;;;;4.20;2.97;;;11.90;99.90;;;;;;4967855;28;20584;-78
2023/10/15 11:31:46;;;;;;;7.60;6.90;;;11.80;99.90;;;;;;4973666;28;20630;-77
2023/10/15 11:34:13;;;;;;;5.40;4.00;;;11.70;99.90;;;;;;4966192;28;20244;-78
2023/10/15 11:36:43;;;;;;;2.63;2.30;;;11.80;99.90;;;;;;4970567;28;20209;-79
2023/10/15 11:39:17;;;;;;;4.83;2.87;;;11.90;99.90;;;;;;4969603;28;20217;-79
2023/10/15 11:41:49;;;;;;;5.80;5.30;;;11.90;99.90;;;;;;4977860;28;20231;-79
2023/10/15 11:44:16;;;;;;;2.93;2.67;;;11.90;99.90;;;;;;4979046;28;20240;-79
2023/10/15 11:46:43;;;;;;;4.90;2.80;;;12.00;99.90;;;;;;4964393;28;20233;-79
2023/10/15 11:49:10;;;;;;;2.47;2.27;;;11.90;99.90;;;;;;4976827;28;20661;-78
2023/10/15 11:51:39;;;;;;;2.90;2.37;;;12.00;99.90;;;;;;4975750;28;20248;-79
2023/10/15 11:54:09;;;;;;;2.63;2.40;;;12.00;99.90;;;;;;4966073;28;20208;-78
2023/10/15 11:56:38;;;;;;;2.77;2.27;;;12.00;99.90;;;;;;4975843;28;20216;-79
2023/10/15 11:59:05;;;;;;;5.70;2.63;;;12.10;99.90;;;;;;4966797;28;20712;-79
2023/10/15 12:01:35;;;;;;;6.33;2.50;;;12.30;99.90;;;;;;4974361;28;20245;-78
2023/10/15 12:04:02;;;;;;;4.23;2.50;;;12.50;99.90;;;;;;4970290;28;20248;-79
2023/10/15 12:06:29;;;;;;;3.07;2.10;;;12.80;99.90;;;;;;4972242;28;20356;-79
2023/10/15 12:08:58;;;;;;;3.10;2.80;;;13.20;99.90;;;;;;4968635;28;20198;-79
2023/10/15 12:11:27;;;;;;;3.47;2.70;;;13.40;99.90;;;;;;4971338;28;20768;-80
2023/10/15 12:13:54;;;;;;;4.77;3.20;;;13.40;99.90;;;;;;4966864;28;20207;-78
2023/10/15 12:16:21;;;;;;;7.73;3.70;;;13.30;99.90;;;;;;4966363;28;20229;-78
2023/10/15 12:18:47;;;;;;;4.00;2.70;;;13.00;99.90;;;;;;4972457;28;20618;-78
2023/10/15 12:21:16;;;;;;;3.50;2.87;;;12.60;99.90;;;;;;4972058;28;20268;-79
2023/10/15 12:23:44;;;;;;;3.93;2.23;;;12.30;99.90;;;;;;4971151;28;20221;-79
2023/10/15 12:26:11;;;;;;;6.87;5.30;;;12.10;99.90;;;;;;4961233;28;20290;-78
2023/10/15 12:28:44;;;;;;;5.13;4.67;;;12.10;99.90;;;;;;4973138;28;20618;-78
2023/10/15 12:31:12;;;;;;;4.67;2.50;;;12.00;99.90;;;;;;4965322;28;20199;-79
2023/10/15 12:33:39;;;;;;;2.97;2.77;;;12.00;99.90;;;;;;4972183;28;20206;-79
2023/10/15 12:36:09;;;;;;;4.07;3.73;;;12.00;99.90;;;;;;4973591;28;20712;-78
2023/10/15 12:38:36;;;;;;;4.67;3.80;;;12.00;99.90;;;;;;4967631;28;20222;-78
2023/10/15 12:41:04;;;;;;;8.50;3.17;;;12.10;99.90;;;;;;4962438;28;20218;-78
2023/10/15 12:43:32;;;;;;;4.93;2.70;;;12.10;99.90;;;;;;5001667;23;20236;-74
2023/10/15 12:46:01;;;;;;;4.47;4.03;;;11.90;99.90;;;;;;4994919;28;20216;-74
2023/10/15 12:48:29;;;;;;;4.17;3.77;;;11.80;99.90;;;;;;4987539;28;20255;-73
2023/10/15 12:50:56;;;;;;;3.80;3.50;;;11.80;99.90;;;;;;4983716;28;20198;-73
2023/10/15 12:53:24;;;;;;;5.70;5.30;;;11.80;99.90;;;;;;4983788;28;20221;-74
2023/10/15 12:55:51;;;;;;;6.60;6.10;;;12.00;99.90;;;;;;4981192;28;20260;-74
2023/10/15 12:58:18;;;;;;;9.00;8.20;;;11.90;99.90;;;;;;4979474;28;20215;-74
2023/10/15 13:00:48;;;;;;;6.00;2.80;;;12.00;99.90;;;;;;4982493;28;20204;-74
2023/10/15 13:03:17;;;;;;;2.37;2.10;;;12.00;99.90;;;;;;4979154;28;20229;-74
2023/10/15 13:05:44;;;;;;;4.73;2.27;;;12.00;99.90;;;;;;4971544;28;20198;-74
2023/10/15 13:08:11;;;;;;;3.27;2.40;;;11.90;99.90;;;;;;4977739;28;20206;-74